createdAt,value
2022-10-01T00:02:19.564Z,100223.54
2022-10-01T00:04:47.340Z,100218.47
2022-10-01T00:07:15.709Z,100219.87
2022-10-01T00:09:43.677Z,100221.48
2022-10-01T00:12:15.964Z,100218.91
2022-10-01T00:14:44.740Z,100214.91
2022-10-01T00:17:12.633Z,100225.59
2022-10-01T00:19:40.568Z,100251.43
2022-10-01T00:22:08.637Z,100291.31
2022-10-01T00:24:37.945Z,100280.75
2022-10-01T00:27:06.009Z,100229.68
2022-10-01T00:29:34.221Z,100199.33
2022-10-01T00:32:02.316Z,100199.96
2022-10-01T00:34:30.526Z,100192.37
2022-10-01T00:36:58.495Z,100174.80
2022-10-01T00:39:26.571Z,100161.36
2022-10-01T00:41:54.845Z,100168.12
2022-10-01T00:44:35.203Z,100171.38
2022-10-01T00:47:05.628Z,100166.82
2022-10-01T00:49:36.973Z,100156.79
2022-10-01T00:52:10.579Z,100165.17
2022-10-01T00:54:41.515Z,100170.79
2022-10-01T00:57:14.204Z,100166.85
2022-10-01T00:59:43.501Z,100162.85
2022-10-01T01:02:12.383Z,100164.55
2022-10-01T01:04:41.671Z,100164.12
2022-10-01T01:07:10.029Z,100160.13
2022-10-01T01:09:43.083Z,100156.27
2022-10-01T01:12:26.053Z,100155.77
2022-10-01T01:15:03.256Z,100152.21
2022-10-01T01:17:40.407Z,100147.34
2022-10-01T01:20:20.034Z,100142.18
2022-10-01T01:23:16.168Z,100134.98
2022-10-01T01:26:07.230Z,100128.23
2022-10-01T01:28:44.609Z,100127.27
2022-10-01T01:31:18.052Z,100118.55
2022-10-01T01:33:50.327Z,100118.80
2022-10-01T01:36:24.067Z,100123.42
2022-10-01T01:38:57.166Z,100124.93
2022-10-01T01:41:29.562Z,100126.75
2022-10-01T01:44:02.349Z,100127.29
2022-10-01T01:46:35.085Z,100122.92
2022-10-01T01:49:06.277Z,100108.25
2022-10-01T01:51:48.785Z,100103.01
2022-10-01T01:54:18.733Z,100099.13
2022-10-01T01:56:48.234Z,100097.95
2022-10-01T01:59:19.718Z,100097.84
2022-10-01T02:01:49.632Z,100091.84
2022-10-01T02:04:37.470Z,100089.12
2022-10-01T02:07:08.306Z,100092.73
2022-10-01T02:09:54.268Z,100093.37
2022-10-01T02:13:01.701Z,100088.68
2022-10-01T02:15:37.086Z,100093.08
2022-10-01T02:18:20.296Z,100100.52
2022-10-01T02:20:54.605Z,100105.01
2022-10-01T02:23:28.789Z,100107.38
2022-10-01T02:26:00.380Z,100107.31
2022-10-01T02:28:33.475Z,100104.39
2022-10-01T02:31:02.689Z,100105.48
2022-10-01T02:33:33.789Z,100099.04
2022-10-01T02:36:06.299Z,100101.41
2022-10-01T02:38:36.775Z,100106.88
2022-10-01T02:41:09.055Z,100112.10
2022-10-01T02:43:50.326Z,100112.95
2022-10-01T02:46:28.520Z,100114.19
2022-10-01T02:48:57.322Z,100114.58
2022-10-01T02:51:29.588Z,100118.74
2022-10-01T02:54:07.302Z,100122.30
2022-10-01T02:56:56.338Z,100119.23
2022-10-01T02:59:24.419Z,100118.33
2022-10-01T03:01:52.752Z,100112.27
2022-10-01T03:04:20.872Z,100106.77
2022-10-01T03:06:48.698Z,100105.59
2022-10-01T03:09:16.809Z,100102.63
2022-10-01T03:11:44.877Z,100100.07
2022-10-01T03:14:12.947Z,100101.79
2022-10-01T03:16:41.225Z,100109.09
2022-10-01T03:19:09.129Z,100116.45
2022-10-01T03:21:37.034Z,100118.56
2022-10-01T03:24:05.229Z,100115.02
2022-10-01T03:26:33.508Z,100114.38
2022-10-01T03:29:01.894Z,100116.73
2022-10-01T03:31:30.414Z,100111.67
2022-10-01T03:34:00.458Z,100107.36
2022-10-01T03:36:28.273Z,100110.08
2022-10-01T03:38:56.731Z,100106.08
2022-10-01T03:41:24.700Z,100105.77
2022-10-01T03:43:56.017Z,100103.76
2022-10-01T03:46:26.386Z,100102.52
2022-10-01T03:48:56.486Z,100097.28
2022-10-01T03:51:24.768Z,100099.94
2022-10-01T03:53:52.834Z,100104.58
2022-10-01T03:56:21.417Z,100106.02
2022-10-01T03:58:50.034Z,100101.47
2022-10-01T04:01:18.293Z,100106.20
2022-10-01T04:03:46.721Z,100108.29
2022-10-01T04:06:15.136Z,100107.45
2022-10-01T04:08:43.110Z,100107.68
2022-10-01T04:11:11.725Z,100112.08
2022-10-01T04:13:39.860Z,100113.73
2022-10-01T04:16:08.476Z,100114.63
2022-10-01T04:18:36.573Z,100118.44
2022-10-01T04:21:04.776Z,100115.96
2022-10-01T04:23:32.755Z,100113.17
2022-10-01T04:26:04.987Z,100112.30
2022-10-01T04:28:33.212Z,100112.32
2022-10-01T04:31:19.664Z,100116.36
2022-10-01T04:33:47.674Z,100122.37
2022-10-01T04:36:15.761Z,100124.37
2022-10-01T04:38:43.564Z,100127.15
2022-10-01T04:41:11.473Z,100127.33
2022-10-01T04:43:40.455Z,100123.70
2022-10-01T04:46:08.333Z,100123.32
2022-10-01T04:48:36.312Z,100127.99
2022-10-01T04:51:04.336Z,100128.49
2022-10-01T04:53:32.404Z,100130.64
2022-10-01T04:56:00.455Z,100136.21
2022-10-01T04:58:28.378Z,100143.48
2022-10-01T05:01:01.050Z,100142.10
2022-10-01T05:03:30.162Z,100136.55
2022-10-01T05:05:58.226Z,100134.22
2022-10-01T05:08:26.293Z,100132.39
2022-10-01T05:10:54.163Z,100129.83
2022-10-01T05:13:22.129Z,100127.29
2022-10-01T05:15:52.211Z,100122.83
2022-10-01T05:18:20.188Z,100116.50
2022-10-01T05:20:47.958Z,100117.63
2022-10-01T05:23:16.052Z,100118.22
2022-10-01T05:25:47.184Z,100114.95
2022-10-01T05:28:21.277Z,100111.52
2022-10-01T05:30:53.887Z,100110.55
2022-10-01T05:33:21.795Z,100110.25
2022-10-01T05:35:49.668Z,100112.98
2022-10-01T05:38:17.490Z,100117.30
2022-10-01T05:40:47.440Z,100130.47
2022-10-01T05:43:15.982Z,100138.84
2022-10-01T05:45:44.243Z,100150.67
2022-10-01T05:48:13.041Z,100155.99
2022-10-01T05:50:40.890Z,100159.61
2022-10-01T05:53:11.480Z,100162.61
2022-10-01T05:55:39.327Z,100161.77
2022-10-01T05:58:12.296Z,100147.83
2022-10-01T06:00:42.109Z,100146.41
2022-10-01T06:03:13.072Z,100144.95
2022-10-01T06:05:44.601Z,100137.92
2022-10-01T06:08:13.479Z,100130.48
2022-10-01T06:10:41.666Z,100127.85
2022-10-01T06:13:09.521Z,100123.86
2022-10-01T06:15:38.996Z,100120.55
2022-10-01T06:18:08.962Z,100118.03
2022-10-01T06:20:38.530Z,100116.09
2022-10-01T06:23:12.136Z,100114.73
2022-10-01T06:25:41.848Z,100115.19
2022-10-01T06:28:12.666Z,100117.14
2022-10-01T06:30:40.766Z,100121.67
2022-10-01T06:33:11.808Z,100122.55
2022-10-01T06:35:42.963Z,100126.12
2022-10-01T06:38:11.578Z,100129.21
2022-10-01T06:40:40.829Z,100128.07
2022-10-01T06:43:09.722Z,100128.05
2022-10-01T06:45:41.267Z,100130.63
2022-10-01T06:48:14.606Z,100132.10
2022-10-01T06:50:44.484Z,100136.95
2022-10-01T06:53:14.291Z,100143.23
2022-10-01T06:55:42.669Z,100140.69
2022-10-01T06:58:14.925Z,100137.16
2022-10-01T07:00:44.133Z,100132.58
2022-10-01T07:03:15.946Z,100130.25
2022-10-01T07:05:44.455Z,100130.61
2022-10-01T07:08:13.223Z,100132.92
2022-10-01T07:10:43.172Z,100138.05
2022-10-01T07:13:20.945Z,100139.25
2022-10-01T07:15:48.849Z,100136.63
2022-10-01T07:18:17.094Z,100138.35
2022-10-01T07:20:44.998Z,100132.70
2022-10-01T07:23:14.865Z,100131.41
2022-10-01T07:25:44.219Z,100130.95
2022-10-01T07:28:18.840Z,100132.50
2022-10-01T07:31:06.809Z,100131.67
2022-10-01T07:33:34.736Z,100127.02
2022-10-01T07:36:07.792Z,100124.70
2022-10-01T07:38:35.681Z,100124.20
2022-10-01T07:41:04.727Z,100121.20
2022-10-01T07:43:34.839Z,100122.77
2022-10-01T07:46:05.096Z,100120.76
2022-10-01T07:48:33.220Z,100116.95
2022-10-01T07:51:01.058Z,100112.69
2022-10-01T07:53:29.334Z,100108.05
2022-10-01T07:56:02.102Z,100100.08
2022-10-01T07:58:30.081Z,100101.02
2022-10-01T08:01:00.734Z,100098.67
2022-10-01T08:03:28.574Z,100097.16
2022-10-01T08:05:56.847Z,100099.17
2022-10-01T08:08:24.817Z,100100.83
2022-10-01T08:10:52.690Z,100098.40
2022-10-01T08:13:24.895Z,100098.88
2022-10-01T08:15:56.212Z,100097.71
2022-10-01T08:18:24.446Z,100091.48
2022-10-01T08:20:52.700Z,100088.82
2022-10-01T08:23:21.623Z,100089.52
2022-10-01T08:25:49.619Z,100087.77
2022-10-01T08:28:17.966Z,100088.36
2022-10-01T08:30:45.922Z,100092.45
2022-10-01T08:33:14.809Z,100089.67
2022-10-01T08:35:46.262Z,100087.08
2022-10-01T08:38:15.199Z,100087.14
2022-10-01T08:40:49.720Z,100080.90
2022-10-01T08:43:30.076Z,100079.00
2022-10-01T08:46:05.974Z,100076.73
2022-10-01T08:48:45.563Z,100079.52
2022-10-01T08:51:48.511Z,100078.73
2022-10-01T08:54:35.158Z,100071.27
2022-10-01T08:57:09.725Z,100071.19
2022-10-01T08:59:49.624Z,100071.20
2022-10-01T09:02:25.527Z,100071.37
2022-10-01T09:05:02.940Z,100069.20
2022-10-01T09:07:37.267Z,100069.50
2022-10-01T09:10:21.008Z,100066.89
2022-10-01T09:13:19.752Z,100063.60
2022-10-01T09:16:02.356Z,100062.73
2022-10-01T09:18:33.475Z,100064.42
2022-10-01T09:21:01.598Z,100066.24
2022-10-01T09:23:32.288Z,100065.04
2022-10-01T09:26:00.762Z,100062.61
2022-10-01T09:28:34.121Z,100066.58
2022-10-01T09:31:23.824Z,100073.52
2022-10-01T09:33:58.271Z,100079.36
2022-10-01T09:36:41.369Z,100080.48
2022-10-01T09:39:18.158Z,100076.46
2022-10-01T09:41:46.926Z,100078.74
2022-10-01T09:44:42.844Z,100078.16
2022-10-01T09:47:19.329Z,100080.85
2022-10-01T09:49:49.852Z,100083.69
2022-10-01T09:52:20.799Z,100082.59
2022-10-01T09:55:15.179Z,100080.69
2022-10-01T09:57:48.032Z,100080.08
2022-10-01T10:00:25.560Z,100081.33
2022-10-01T10:02:55.781Z,100080.23
2022-10-01T10:05:25.594Z,100072.86
2022-10-01T10:07:58.379Z,100072.34
2022-10-01T10:10:39.708Z,100070.83
2022-10-01T10:13:13.970Z,100072.52
2022-10-01T10:15:57.740Z,100075.85
2022-10-01T10:18:34.056Z,100074.15
2022-10-01T10:21:04.835Z,100075.28
2022-10-01T10:23:34.453Z,100069.73
2022-10-01T10:26:07.472Z,100066.74
2022-10-01T10:28:46.227Z,100063.48
2022-10-01T10:31:21.066Z,100060.64
2022-10-01T10:34:23.964Z,100052.58
2022-10-01T10:36:59.237Z,100051.96
2022-10-01T10:39:30.843Z,100044.61
2022-10-01T10:42:02.340Z,100035.25
2022-10-01T10:44:38.952Z,100033.34
2022-10-01T10:47:12.049Z,100031.71
2022-10-01T10:49:47.698Z,100021.66
2022-10-01T10:52:45.605Z,100017.14
2022-10-01T10:55:23.482Z,100016.65
2022-10-01T10:57:57.372Z,100014.29
2022-10-01T11:00:26.792Z,100009.06
2022-10-01T11:02:59.865Z,100001.01
2022-10-01T11:05:32.160Z,99992.59
2022-10-01T11:08:03.881Z,99984.88
2022-10-01T11:10:34.873Z,99975.95
2022-10-01T11:13:12.832Z,99966.55
2022-10-01T11:15:42.170Z,99956.64
2022-10-01T11:18:34.502Z,99947.83
2022-10-01T11:21:20.172Z,99944.45
2022-10-01T11:24:19.665Z,99941.59
2022-10-01T11:26:53.328Z,99935.73
2022-10-01T11:29:30.526Z,99936.61
2022-10-01T11:32:19.453Z,99930.16
2022-10-01T11:35:12.132Z,99921.43
2022-10-01T11:38:18.287Z,99915.92
2022-10-01T11:40:51.473Z,99908.77
2022-10-01T11:43:27.169Z,99906.41
2022-10-01T11:46:03.980Z,99902.52
2022-10-01T11:48:39.589Z,99904.27
2022-10-01T11:51:18.086Z,99902.98
2022-10-01T11:54:01.845Z,99904.36
2022-10-01T11:57:07.701Z,99898.60
2022-10-01T12:00:09.714Z,99888.73
2022-10-01T12:02:57.190Z,99885.80
2022-10-01T12:05:31.386Z,99883.20
2022-10-01T12:08:15.215Z,99878.10
2022-10-01T12:10:43.109Z,99875.16
2022-10-01T12:13:33.301Z,99874.70
2022-10-01T12:16:06.314Z,99876.73
2022-10-01T12:18:52.256Z,99880.16
2022-10-01T12:21:41.742Z,99873.95
2022-10-01T12:24:17.890Z,99868.88
2022-10-01T12:27:19.365Z,99868.67
2022-10-01T12:29:58.935Z,99862.67
2022-10-01T12:32:26.652Z,99857.34
2022-10-01T12:35:08.739Z,99851.51
2022-10-01T12:38:02.605Z,99848.47
2022-10-01T12:40:35.575Z,99847.48
2022-10-01T12:43:40.936Z,99848.06
2022-10-01T12:46:39.619Z,99844.02
2022-10-01T12:49:44.601Z,99839.77
2022-10-01T12:52:27.973Z,99839.89
2022-10-01T12:55:04.495Z,99844.15
2022-10-01T12:57:52.845Z,99840.06
2022-10-01T13:00:27.349Z,99841.11
2022-10-01T13:03:17.417Z,99837.89
2022-10-01T13:06:12.657Z,99833.88
2022-10-01T13:08:59.266Z,99827.84
2022-10-01T13:11:44.187Z,99821.49
2022-10-01T13:14:16.175Z,99821.14
2022-10-01T13:17:12.328Z,99822.66
2022-10-01T13:20:22.262Z,99827.46
2022-10-01T13:22:56.002Z,99827.05
2022-10-01T13:25:40.457Z,99822.44
2022-10-01T13:28:22.990Z,99818.92
2022-10-01T13:30:53.710Z,99819.39
2022-10-01T13:33:32.179Z,99819.95
2022-10-01T13:36:02.720Z,99816.30
2022-10-01T13:38:39.555Z,99817.46
2022-10-01T13:41:24.694Z,99824.30
2022-10-01T13:43:58.441Z,99827.97
2022-10-01T13:46:33.130Z,99825.66
2022-10-01T13:49:19.701Z,99821.04
2022-10-01T13:51:47.547Z,99819.22
2022-10-01T13:54:43.347Z,99817.06
2022-10-01T13:57:36.547Z,99807.45
2022-10-01T14:00:04.766Z,99796.77
2022-10-01T14:02:58.737Z,99799.73
2022-10-01T14:05:40.184Z,99803.78
2022-10-01T14:08:29.817Z,99808.75
2022-10-01T14:11:21.278Z,99808.59
2022-10-01T14:14:10.132Z,99797.95
2022-10-01T14:16:43.834Z,99787.48
2022-10-01T14:19:22.128Z,99797.50
2022-10-01T14:21:55.649Z,99803.25
2022-10-01T14:24:49.500Z,99805.08
2022-10-01T14:27:40.668Z,99804.00
2022-10-01T14:30:22.944Z,99804.13
2022-10-01T14:33:28.898Z,99809.45
2022-10-01T14:36:15.249Z,99815.34
2022-10-01T14:38:43.370Z,99800.89
2022-10-01T14:41:24.651Z,99785.95
2022-10-01T14:43:52.450Z,99771.17
2022-10-01T14:46:20.488Z,99765.43
2022-10-01T14:48:58.600Z,99763.20
2022-10-01T14:51:30.007Z,99757.90
2022-10-01T14:54:00.449Z,99749.73
2022-10-01T14:56:29.460Z,99738.56
2022-10-01T14:59:03.023Z,99727.48
2022-10-01T15:01:31.165Z,99709.55
2022-10-01T15:03:59.325Z,99696.17
2022-10-01T15:06:30.174Z,99686.94
2022-10-01T15:09:08.249Z,99679.99
2022-10-01T15:11:38.118Z,99665.02
2022-10-01T15:14:16.901Z,99658.58
2022-10-01T15:16:45.571Z,99646.90
2022-10-01T15:19:17.295Z,99641.15
2022-10-01T15:21:55.676Z,99634.02
2022-10-01T15:24:45.618Z,99632.56
2022-10-01T15:27:17.739Z,99627.02
2022-10-01T15:29:55.340Z,99627.23
2022-10-01T15:32:27.345Z,99629.91
2022-10-01T15:34:58.174Z,99624.48
2022-10-01T15:37:35.771Z,99623.51
2022-10-01T15:40:20.262Z,99626.55
2022-10-01T15:43:08.967Z,99630.68
2022-10-01T15:45:36.773Z,99630.48
2022-10-01T15:48:04.921Z,99627.36
2022-10-01T15:50:39.442Z,99630.38
2022-10-01T15:53:21.605Z,99632.77
2022-10-01T15:55:53.199Z,99633.14
2022-10-01T15:58:52.601Z,99636.21
2022-10-01T16:01:28.217Z,99630.90
2022-10-01T16:04:09.683Z,99628.33
2022-10-01T16:06:40.061Z,99634.14
2022-10-01T16:09:25.723Z,99648.49
2022-10-01T16:12:02.351Z,99666.95
2022-10-01T16:14:39.399Z,99681.83
2022-10-01T16:17:19.981Z,99692.36
2022-10-01T16:19:50.095Z,99699.17
2022-10-01T16:22:19.312Z,99694.48
2022-10-01T16:24:54.327Z,99685.88
2022-10-01T16:27:24.077Z,99673.63
2022-10-01T16:30:08.992Z,99664.30
2022-10-01T16:32:36.978Z,99650.94
2022-10-01T16:35:21.819Z,99631.48
2022-10-01T16:37:51.950Z,99620.86
2022-10-01T16:40:22.693Z,99626.43
2022-10-01T16:42:51.153Z,99625.17
2022-10-01T16:45:24.234Z,99616.30
2022-10-01T16:47:53.301Z,99609.95
2022-10-01T16:50:22.888Z,99596.73
2022-10-01T16:52:57.164Z,99580.21
2022-10-01T16:55:32.561Z,99557.42
2022-10-01T16:58:02.168Z,99544.77
2022-10-01T17:00:31.151Z,99555.74
2022-10-01T17:03:02.424Z,99575.40
2022-10-01T17:05:33.276Z,99593.39
2022-10-01T17:08:03.630Z,99608.77
2022-10-01T17:10:37.131Z,99611.58
2022-10-01T17:13:05.042Z,99628.50
2022-10-01T17:15:33.438Z,99638.80
2022-10-01T17:18:02.168Z,99641.52
2022-10-01T17:20:31.008Z,99642.02
2022-10-01T17:22:59.507Z,99640.14
2022-10-01T17:25:32.137Z,99637.16
2022-10-01T17:28:04.429Z,99645.16
2022-10-01T17:30:32.940Z,99648.11
2022-10-01T17:33:01.639Z,99645.25
2022-10-01T17:35:30.198Z,99642.80
2022-10-01T17:37:58.910Z,99639.70
2022-10-01T17:40:27.776Z,99647.71
2022-10-01T17:42:55.590Z,99653.80
2022-10-01T17:45:23.714Z,99657.14
2022-10-01T17:47:51.682Z,99658.79
2022-10-01T17:50:19.680Z,99659.95
2022-10-01T17:52:48.627Z,99658.67
2022-10-01T17:55:19.890Z,99652.71
2022-10-01T17:57:47.641Z,99657.79
2022-10-01T18:00:15.831Z,99665.06
2022-10-01T18:02:44.469Z,99669.48
2022-10-01T18:05:14.968Z,99666.17
2022-10-01T18:07:42.902Z,99660.59
2022-10-01T18:10:13.428Z,99664.16
2022-10-01T18:12:41.315Z,99667.54
2022-10-01T18:15:10.233Z,99669.34
2022-10-01T18:17:43.181Z,99668.91
2022-10-01T18:20:11.533Z,99671.11
2022-10-01T18:22:39.511Z,99676.60
2022-10-01T18:25:07.739Z,99675.19
2022-10-01T18:27:35.773Z,99675.96
2022-10-01T18:30:03.957Z,99681.40
2022-10-01T18:32:37.747Z,99680.09
2022-10-01T18:35:40.625Z,99685.15
2022-10-01T18:38:24.438Z,99683.89
2022-10-01T18:40:59.950Z,99685.97
2022-10-01T18:43:32.893Z,99681.85
2022-10-01T18:46:03.831Z,99676.57
2022-10-01T18:48:51.330Z,99674.12
2022-10-01T18:51:52.635Z,99677.67
2022-10-01T18:54:40.255Z,99669.02
2022-10-01T18:57:31.748Z,99666.41
2022-10-01T19:00:17.401Z,99674.41
2022-10-01T19:02:53.447Z,99673.88
2022-10-01T19:05:29.761Z,99671.48
2022-10-01T19:08:23.637Z,99669.45
2022-10-01T19:11:30.387Z,99665.33
2022-10-01T19:14:17.029Z,99660.10
2022-10-01T19:16:57.092Z,99656.48
2022-10-01T19:19:52.408Z,99657.54
2022-10-01T19:22:26.507Z,99654.05
2022-10-01T19:25:09.594Z,99656.69
2022-10-01T19:27:55.987Z,99659.50
2022-10-01T19:30:24.317Z,99658.42
2022-10-01T19:33:10.614Z,99660.48
2022-10-01T19:35:46.806Z,99660.26
2022-10-01T19:38:42.447Z,99656.20
2022-10-01T19:41:16.085Z,99655.23
2022-10-01T19:43:52.045Z,99658.30
2022-10-01T19:46:37.768Z,99651.71
2022-10-01T19:49:08.762Z,99642.42
2022-10-01T19:51:41.431Z,99643.21
2022-10-01T19:54:17.198Z,99646.63
2022-10-01T19:56:50.994Z,99645.77
2022-10-01T19:59:20.707Z,99653.36
2022-10-01T20:02:01.469Z,99661.86
2022-10-01T20:04:49.002Z,99664.98
2022-10-01T20:07:35.103Z,99667.44
2022-10-01T20:10:25.608Z,99667.63
2022-10-01T20:13:03.985Z,99665.95
2022-10-01T20:15:46.535Z,99665.23
2022-10-01T20:18:28.212Z,99664.81
2022-10-01T20:21:22.390Z,99664.41
2022-10-01T20:24:08.578Z,99656.59
2022-10-01T20:26:46.286Z,99651.55
2022-10-01T20:29:23.260Z,99664.36
2022-10-01T20:32:18.451Z,99665.70
2022-10-01T20:35:27.276Z,99664.50
2022-10-01T20:38:27.730Z,99662.39
2022-10-01T20:40:58.354Z,99660.85
2022-10-01T20:43:50.652Z,99660.20
2022-10-01T20:46:27.640Z,99666.19
2022-10-01T20:49:13.762Z,99673.40
2022-10-01T20:51:53.812Z,99683.77
2022-10-01T20:54:33.360Z,99685.84
2022-10-01T20:57:30.781Z,99687.66
2022-10-01T21:00:08.737Z,99690.64
2022-10-01T21:02:53.453Z,99695.59
2022-10-01T21:05:39.444Z,99692.58
2022-10-01T21:08:34.976Z,99691.33
2022-10-01T21:11:09.564Z,99700.52
2022-10-01T21:13:43.917Z,99705.40
2022-10-01T21:16:32.889Z,99710.42
2022-10-01T21:19:37.931Z,99711.09
2022-10-01T21:22:21.565Z,99706.72
2022-10-01T21:24:55.166Z,99700.35
2022-10-01T21:27:54.818Z,99697.54
2022-10-01T21:30:23.274Z,99700.93
2022-10-01T21:33:10.701Z,99700.37
2022-10-01T21:35:59.651Z,99703.44
2022-10-01T21:38:43.790Z,99711.27
2022-10-01T21:41:38.386Z,99713.64
2022-10-01T21:44:36.454Z,99711.23
2022-10-01T21:47:10.580Z,99709.55
2022-10-01T21:49:47.984Z,99711.40
2022-10-01T21:52:34.489Z,99709.08
2022-10-01T21:55:26.823Z,99714.02
2022-10-01T21:58:02.403Z,99707.10
2022-10-01T22:00:32.761Z,99708.46
2022-10-01T22:03:26.508Z,99704.62
2022-10-01T22:06:12.910Z,99696.41
2022-10-01T22:09:08.670Z,99690.92
2022-10-01T22:11:41.028Z,99702.62
2022-10-01T22:14:18.483Z,99710.69
2022-10-01T22:17:16.062Z,99711.62
2022-10-01T22:19:51.280Z,99710.08
2022-10-01T22:22:29.542Z,99716.02
2022-10-01T22:25:00.301Z,99719.18
2022-10-01T22:27:32.335Z,99717.94
2022-10-01T22:30:13.098Z,99716.83
2022-10-01T22:33:13.127Z,99725.34
2022-10-01T22:36:02.315Z,99729.83
2022-10-01T22:38:36.568Z,99734.04
2022-10-01T22:41:13.786Z,99735.94
2022-10-01T22:43:43.106Z,99736.00
2022-10-01T22:46:20.280Z,99736.59
2022-10-01T22:49:26.744Z,99740.15
2022-10-01T22:52:39.979Z,99734.06
2022-10-01T22:55:35.385Z,99736.64
2022-10-01T22:58:40.629Z,99743.20
2022-10-01T23:01:27.204Z,99742.96
2022-10-01T23:04:07.698Z,99738.89
2022-10-01T23:07:03.926Z,99744.71
2022-10-01T23:10:03.542Z,99753.80
2022-10-01T23:12:37.550Z,99757.46
2022-10-01T23:15:13.713Z,99763.42
2022-10-01T23:17:52.025Z,99761.30
2022-10-01T23:20:32.122Z,99758.91
2022-10-01T23:23:25.310Z,99766.71
2022-10-01T23:26:25.456Z,99770.48
2022-10-01T23:29:11.753Z,99773.39
2022-10-01T23:32:00.238Z,99777.76
2022-10-01T23:34:46.694Z,99777.02
2022-10-01T23:37:29.787Z,99780.10
2022-10-01T23:40:13.281Z,99782.93
2022-10-01T23:42:55.425Z,99788.95
2022-10-01T23:45:38.602Z,99796.10
2022-10-01T23:48:24.685Z,99795.11
2022-10-01T23:51:27.216Z,99798.72
2022-10-01T23:54:03.781Z,99805.33
2022-10-01T23:56:50.041Z,99811.81
2022-10-01T23:59:32.736Z,99810.42
